Terminal Aerodrome Forecast
Issued by NWS Charleston, WV

Home | Current Version | Previous Version | Text Only | Print | Product List | Glossary On
Versions: 1 2 3 4 5 6 7 8 9 10 11 12 13 14 15 16 17 18 19 20 21 22 23
000
FTUS41 KRLX 050553
TAFHTS
TAF
KHTS 050553Z 0506/0606 00000KT 6SM BR SCT200
     FM050800 00000KT 4SM BR SCT200
     FM051000 00000KT 2SM BR SCT001
     FM051300 14004KT 3SM BR FEW002 BKN200
     FM051400 14004KT P6SM BKN200
     FM051900 11004KT P6SM BKN040
     FM052300 00000KT P6SM SCT050
     FM060500 00000KT 6SM BR SCT080=

USA.gov is the U.S. government's official web portal to all federal, state and local government web resources and services.